Time;durP1;ratioP1;P1;durP2;ratioP2;P2;SDS_P1;SDS_P2;PMS_P1;PMS_P2;Temp;Humidity;BMP_temperature;BMP_pressure;BME280_temperature;BME280_humidity;BME280_pressure;Samples;Min_cycle;Max_cycle;Signal;HPM_P1;HPM_P2
2022/10/24 00:01:38;;;;;;;4.10;2.57;;;17.90;99.90;;;;;;5050842;28;20228;-80
2022/10/24 00:04:05;;;;;;;5.07;3.03;;;17.90;99.90;;;;;;5054907;28;20205;-81
2022/10/24 00:06:32;;;;;;;7.97;2.83;;;17.90;99.90;;;;;;5037678;28;20773;-81
2022/10/24 00:08:58;;;;;;;6.73;2.90;;;18.00;99.90;;;;;;5037236;28;20220;-80
2022/10/24 00:11:27;;;;;;;6.10;2.90;;;18.00;99.90;;;;;;5038415;28;20208;-80
2022/10/24 00:13:58;;;;;;;6.63;3.33;;;17.90;99.90;;;;;;5039100;28;20194;-81
2022/10/24 00:16:26;;;;;;;5.83;2.73;;;17.90;99.90;;;;;;5037074;28;20597;-80
2022/10/24 00:18:53;;;;;;;4.53;2.50;;;17.90;99.90;;;;;;5037741;28;20538;-81
2022/10/24 00:21:20;;;;;;;3.23;2.30;;;17.80;99.90;;;;;;5053195;28;20232;-80
2022/10/24 00:23:47;;;;;;;4.77;2.30;;;17.70;99.90;;;;;;5037627;28;20205;-81
2022/10/24 00:26:15;;;;;;;4.53;2.23;;;17.70;99.90;;;;;;5038479;28;20665;-81
2022/10/24 00:28:42;;;;;;;3.17;2.60;;;17.60;99.90;;;;;;5036632;28;20692;-81
2022/10/24 00:31:14;;;;;;;4.90;2.63;;;17.50;99.90;;;;;;5037426;28;20216;-81
2022/10/24 00:33:41;;;;;;;3.07;2.30;;;17.40;99.90;;;;;;5036868;28;20196;-81
2022/10/24 00:36:11;;;;;;;2.97;2.17;;;17.40;99.90;;;;;;5037684;28;20196;-81
2022/10/24 00:38:38;;;;;;;7.00;2.53;;;17.30;99.90;;;;;;5036083;28;20196;-81
2022/10/24 00:41:05;;;;;;;8.30;7.13;;;17.20;99.90;;;;;;5035926;28;20307;-81
2022/10/24 00:43:32;;;;;;;5.33;2.23;;;17.20;99.90;;;;;;5036761;28;20628;-81
2022/10/24 00:46:00;;;;;;;5.53;2.67;;;17.20;99.90;;;;;;5036578;28;20204;-81
2022/10/24 00:48:33;;;;;;;4.43;2.37;;;17.10;99.90;;;;;;5043262;28;20668;-81
2022/10/24 00:51:03;;;;;;;4.23;2.50;;;17.10;99.90;;;;;;5036059;28;20592;-80
2022/10/24 00:53:33;;;;;;;3.00;2.67;;;17.00;99.90;;;;;;5037682;28;20196;-80
2022/10/24 00:56:03;;;;;;;4.33;3.80;;;16.90;99.90;;;;;;5032902;28;20204;-81
2022/10/24 00:58:33;;;;;;;9.00;2.87;;;16.90;99.90;;;;;;5028501;28;20212;-81
2022/10/24 01:01:01;;;;;;;5.43;3.97;;;16.80;99.90;;;;;;5035726;28;20220;-81
2022/10/24 01:03:29;;;;;;;4.30;3.90;;;16.70;99.90;;;;;;5026575;28;20191;-80
2022/10/24 01:06:22;;;;;;;3.27;2.80;;;16.70;99.90;;;;;;5037572;28;20199;-80
2022/10/24 01:08:57;;;;;;;5.40;3.73;;;16.60;99.90;;;;;;5030421;28;20193;-80
2022/10/24 01:11:39;;;;;;;5.27;2.60;;;16.60;99.90;;;;;;5035257;28;20219;-80
2022/10/24 01:14:20;;;;;;;4.10;3.43;;;16.50;99.90;;;;;;5036190;28;20203;-81
2022/10/24 01:16:51;;;;;;;7.53;6.83;;;16.50;99.90;;;;;;5027171;28;20200;-80
2022/10/24 01:19:41;;;;;;;7.10;4.33;;;16.50;99.90;;;;;;5049862;28;20813;-81
2022/10/24 01:22:15;;;;;;;10.67;9.80;;;16.50;99.90;;;;;;5036978;28;20848;-81
2022/10/24 01:24:56;;;;;;;6.37;4.50;;;16.50;99.90;;;;;;5052583;28;20202;-81
2022/10/24 01:27:34;;;;;;;6.57;6.07;;;16.40;99.90;;;;;;5046769;28;20250;-80
2022/10/24 01:30:08;;;;;;;9.23;8.43;;;16.50;99.90;;;;;;5036740;28;20228;-79
2022/10/24 01:32:40;;;;;;;8.10;4.40;;;16.50;99.90;;;;;;5030065;28;20191;-81
2022/10/24 01:35:16;;;;;;;4.43;3.40;;;16.50;99.90;;;;;;5036988;28;20576;-81
2022/10/24 01:37:49;;;;;;;6.03;3.77;;;16.50;99.90;;;;;;5035914;28;20215;-81
2022/10/24 01:40:21;;;;;;;8.03;2.90;;;16.50;99.90;;;;;;5035214;28;20450;-81
2022/10/24 01:42:50;;;;;;;5.93;3.00;;;16.50;99.90;;;;;;5035150;28;20196;-81
2022/10/24 01:45:25;;;;;;;5.50;5.00;;;16.50;99.90;;;;;;5035740;28;20668;-81
2022/10/24 01:47:56;;;;;;;6.53;5.57;;;16.40;99.90;;;;;;5031706;28;20660;-81
2022/10/24 01:50:24;;;;;;;9.47;8.20;;;16.50;99.90;;;;;;5035454;28;20261;-81
2022/10/24 01:52:53;;;;;;;8.33;5.60;;;16.50;99.90;;;;;;5035384;28;20200;-82
2022/10/24 01:55:19;;;;;;;3.40;2.40;;;16.50;99.90;;;;;;5036436;28;20247;-82
2022/10/24 01:57:46;;;;;;;5.80;4.77;;;16.50;99.90;;;;;;5035109;28;20217;-81
2022/10/24 02:00:21;;;;;;;9.87;8.00;;;16.50;99.90;;;;;;5036600;28;20222;-81
2022/10/24 02:02:54;;;;;;;6.47;3.10;;;16.60;99.90;;;;;;5035241;28;20200;-82
2022/10/24 02:05:25;;;;;;;8.20;7.40;;;16.60;99.90;;;;;;5035258;28;20238;-80
2022/10/24 02:07:56;;;;;;;7.23;5.87;;;16.70;99.90;;;;;;5035451;28;20191;-81
2022/10/24 02:10:27;;;;;;;9.67;2.90;;;16.70;99.90;;;;;;5034897;28;20245;-81
2022/10/24 02:13:00;;;;;;;5.07;2.60;;;16.70;99.90;;;;;;5035982;28;20214;-81
2022/10/24 02:15:31;;;;;;;5.47;2.57;;;16.70;99.90;;;;;;5034713;28;20200;-82
2022/10/24 02:17:58;;;;;;;6.90;2.90;;;16.80;99.90;;;;;;5036320;28;20191;-80
2022/10/24 02:20:29;;;;;;;7.27;5.37;;;16.80;99.90;;;;;;5036144;28;20697;-82
2022/10/24 02:23:03;;;;;;;3.77;2.57;;;16.80;99.90;;;;;;5035661;28;20287;-81
2022/10/24 02:25:34;;;;;;;3.43;2.90;;;16.70;99.90;;;;;;5027891;28;20204;-82
2022/10/24 02:28:08;;;;;;;3.30;2.50;;;16.70;99.90;;;;;;5034667;28;20192;-81
2022/10/24 02:30:42;;;;;;;6.40;3.27;;;16.60;99.90;;;;;;5027333;28;20219;-82
2022/10/24 02:33:10;;;;;;;3.90;2.67;;;16.50;99.90;;;;;;5034655;28;20203;-81
2022/10/24 02:35:39;;;;;;;5.07;3.10;;;16.40;99.90;;;;;;5034251;28;20234;-82
2022/10/24 02:38:10;;;;;;;8.03;3.23;;;16.20;99.90;;;;;;5034415;28;20281;-81
2022/10/24 02:40:38;;;;;;;8.77;3.40;;;16.10;99.90;;;;;;5033992;28;20212;-81
2022/10/24 02:43:07;;;;;;;6.33;5.67;;;16.00;99.90;;;;;;5036076;28;20195;-81
2022/10/24 02:45:36;;;;;;;3.93;3.20;;;16.00;99.90;;;;;;5036303;28;20563;-81
2022/10/24 02:48:09;;;;;;;5.80;3.27;;;16.00;99.90;;;;;;5036971;28;20192;-81
2022/10/24 02:50:39;;;;;;;5.43;3.63;;;16.00;99.90;;;;;;5034990;28;20223;-81
2022/10/24 02:53:09;;;;;;;8.27;7.07;;;15.90;99.90;;;;;;5029216;28;20395;-82
2022/10/24 02:55:36;;;;;;;8.47;4.47;;;15.90;99.90;;;;;;5032660;28;20297;-82
2022/10/24 02:58:03;;;;;;;7.87;4.23;;;15.90;99.90;;;;;;5029443;28;20607;-82
2022/10/24 03:00:30;;;;;;;11.87;10.73;;;15.90;99.90;;;;;;5034253;28;20294;-81
2022/10/24 03:02:57;;;;;;;7.13;5.60;;;15.90;99.90;;;;;;5033202;28;20195;-82
2022/10/24 03:05:25;;;;;;;6.50;4.60;;;15.90;99.90;;;;;;5031382;28;20207;-82
2022/10/24 03:07:52;;;;;;;7.53;6.87;;;15.90;99.90;;;;;;5047225;28;20211;-82
2022/10/24 03:10:20;;;;;;;6.60;3.63;;;16.00;99.90;;;;;;5035696;28;20213;-82
2022/10/24 03:12:46;;;;;;;7.23;5.60;;;16.00;99.90;;;;;;5033019;28;20221;-82
2022/10/24 03:15:14;;;;;;;7.13;3.10;;;16.00;99.90;;;;;;5024307;28;20204;-82
2022/10/24 03:17:41;;;;;;;4.87;3.03;;;16.00;99.90;;;;;;5032970;28;20604;-83
2022/10/24 03:20:09;;;;;;;6.90;4.27;;;16.00;99.90;;;;;;5031310;28;20592;-82
2022/10/24 03:22:37;;;;;;;7.53;3.63;;;16.00;99.90;;;;;;5032868;28;20211;-83
2022/10/24 03:25:05;;;;;;;5.80;3.60;;;16.00;99.90;;;;;;5031411;28;20199;-82
2022/10/24 03:27:33;;;;;;;11.17;3.53;;;15.90;99.90;;;;;;5035524;28;20257;-82
2022/10/24 03:30:00;;;;;;;7.13;3.20;;;15.90;99.90;;;;;;5030909;28;20223;-81
2022/10/24 03:32:27;;;;;;;4.63;3.00;;;15.90;99.90;;;;;;5028819;28;20204;-81
2022/10/24 03:34:55;;;;;;;7.97;3.30;;;15.80;99.90;;;;;;5037186;28;20307;-82
2022/10/24 03:37:22;;;;;;;3.57;2.90;;;15.80;99.90;;;;;;5037003;28;20200;-82
2022/10/24 03:39:50;;;;;;;5.90;3.40;;;15.80;99.90;;;;;;5034897;28;20599;-82
2022/10/24 03:42:17;;;;;;;6.60;2.80;;;15.80;99.90;;;;;;5027547;28;20204;-82
2022/10/24 03:44:44;;;;;;;5.60;3.10;;;15.80;99.90;;;;;;5025620;28;20194;-82
2022/10/24 03:47:11;;;;;;;5.70;3.23;;;15.80;99.90;;;;;;5037267;28;20214;-83
2022/10/24 03:49:38;;;;;;;7.50;3.63;;;15.80;99.90;;;;;;5052818;28;20566;-82
2022/10/24 03:52:05;;;;;;;9.03;5.37;;;15.80;99.90;;;;;;5037761;28;20207;-82
2022/10/24 03:54:33;;;;;;;8.47;5.30;;;15.80;99.90;;;;;;5038160;28;20213;-83
2022/10/24 03:57:01;;;;;;;8.80;6.63;;;15.80;99.90;;;;;;5017127;28;20292;-82
2022/10/24 03:59:28;;;;;;;8.30;7.47;;;15.90;99.90;;;;;;5033681;28;20255;-82
2022/10/24 04:01:55;;;;;;;9.67;4.10;;;15.90;99.90;;;;;;5031581;28;20191;-83
2022/10/24 04:04:22;;;;;;;9.20;4.30;;;15.90;99.90;;;;;;5038203;28;20207;-83
2022/10/24 04:06:49;;;;;;;6.30;4.10;;;16.00;99.90;;;;;;5032412;28;20287;-83
2022/10/24 04:09:16;;;;;;;6.10;3.10;;;16.00;99.90;;;;;;5046665;28;20235;-83
2022/10/24 04:11:43;;;;;;;5.13;3.40;;;16.00;99.90;;;;;;5048774;28;20245;-83
2022/10/24 04:14:11;;;;;;;5.00;3.33;;;16.00;99.90;;;;;;5049388;28;20207;-83
2022/10/24 04:16:38;;;;;;;6.90;3.43;;;16.00;99.90;;;;;;5043732;28;20221;-83
2022/10/24 04:19:05;;;;;;;4.77;3.97;;;16.00;99.90;;;;;;5049833;28;20225;-84
2022/10/24 04:21:32;;;;;;;9.83;4.20;;;16.00;99.90;;;;;;5048410;28;20219;-83
2022/10/24 04:23:59;;;;;;;6.37;4.27;;;15.90;99.90;;;;;;5044511;28;20194;-83
2022/10/24 04:26:26;;;;;;;6.47;3.47;;;16.00;99.90;;;;;;5041421;28;20203;-83
2022/10/24 04:28:53;;;;;;;6.33;4.80;;;16.00;99.90;;;;;;5041079;28;20219;-84
2022/10/24 04:31:21;;;;;;;7.03;6.30;;;15.90;99.90;;;;;;5039567;28;20223;-83
2022/10/24 04:33:48;;;;;;;6.40;5.80;;;16.00;99.90;;;;;;5039203;28;20203;-83
2022/10/24 04:36:15;;;;;;;6.47;3.77;;;16.00;99.90;;;;;;5040592;28;20199;-83
2022/10/24 04:38:42;;;;;;;5.93;3.47;;;16.00;99.90;;;;;;5039322;28;20210;-83
2022/10/24 04:41:09;;;;;;;5.10;3.40;;;16.00;99.90;;;;;;5034242;28;20708;-83
2022/10/24 04:43:35;;;;;;;4.57;3.30;;;16.00;99.90;;;;;;5038611;28;20206;-83
2022/10/24 04:46:02;;;;;;;5.93;3.50;;;16.00;99.90;;;;;;5034920;28;20234;-84
2022/10/24 04:48:31;;;;;;;5.40;3.47;;;16.00;99.90;;;;;;5022546;28;20195;-83
2022/10/24 04:50:58;;;;;;;4.20;3.03;;;16.00;99.90;;;;;;5040184;28;20227;-83
2022/10/24 04:53:25;;;;;;;6.27;3.40;;;16.00;99.90;;;;;;5038927;28;20203;-83
2022/10/24 04:55:52;;;;;;;5.83;3.57;;;16.00;99.90;;;;;;5037164;28;20202;-83
2022/10/24 04:58:19;;;;;;;3.90;3.03;;;16.00;99.90;;;;;;5037504;28;20192;-83
2022/10/24 05:00:48;;;;;;;5.77;3.80;;;16.00;99.90;;;;;;5037703;28;20305;-83
2022/10/24 05:03:15;;;;;;;7.17;3.40;;;16.00;99.90;;;;;;5037857;28;20290;-83
2022/10/24 05:05:44;;;;;;;9.80;3.53;;;16.10;99.90;;;;;;5037690;28;20298;-82
2022/10/24 05:08:11;;;;;;;6.70;3.50;;;16.10;99.90;;;;;;5038810;28;20195;-83
2022/10/24 05:10:38;;;;;;;8.57;4.03;;;16.10;99.90;;;;;;5037043;28;20243;-84
2022/10/24 05:13:05;;;;;;;3.70;3.17;;;16.20;99.90;;;;;;5037119;28;20203;-83
2022/10/24 05:15:32;;;;;;;3.70;3.20;;;16.20;99.90;;;;;;5037354;28;20201;-83
2022/10/24 05:17:59;;;;;;;4.33;3.20;;;16.20;99.90;;;;;;5038211;28;20196;-84
2022/10/24 05:20:26;;;;;;;4.00;3.20;;;16.20;99.90;;;;;;5037692;28;20221;-83
2022/10/24 05:22:55;;;;;;;3.83;3.10;;;16.10;99.90;;;;;;5036490;28;20217;-83
2022/10/24 05:25:22;;;;;;;8.27;3.80;;;16.10;99.90;;;;;;5036174;28;20204;-83
2022/10/24 05:27:49;;;;;;;3.20;2.90;;;16.20;99.90;;;;;;5036284;28;20206;-83
2022/10/24 05:30:16;;;;;;;3.50;3.13;;;16.20;99.90;;;;;;5031548;28;20228;-84
2022/10/24 05:32:43;;;;;;;2.80;2.60;;;16.10;99.90;;;;;;5032541;28;20200;-83
2022/10/24 05:35:10;;;;;;;4.93;3.13;;;16.10;99.90;;;;;;5032821;28;20870;-82
2022/10/24 05:37:37;;;;;;;3.33;2.70;;;16.10;99.90;;;;;;5030425;28;20284;-83
2022/10/24 05:40:08;;;;;;;2.77;2.53;;;16.10;99.90;;;;;;5032998;28;20204;-83
2022/10/24 05:42:36;;;;;;;4.70;2.77;;;16.00;99.90;;;;;;5031003;28;20197;-83
2022/10/24 05:45:04;;;;;;;4.13;2.87;;;16.00;99.90;;;;;;5031792;28;20203;-83
2022/10/24 05:47:31;;;;;;;3.30;3.00;;;16.00;99.90;;;;;;5035007;28;20682;-83
2022/10/24 05:49:58;;;;;;;2.80;2.60;;;16.00;99.90;;;;;;5033369;28;20680;-83
2022/10/24 05:52:24;;;;;;;4.47;3.20;;;15.90;99.90;;;;;;5034668;28;20223;-84
2022/10/24 05:54:51;;;;;;;3.20;2.90;;;15.90;99.90;;;;;;5034635;28;20275;-84
2022/10/24 05:57:19;;;;;;;4.27;3.23;;;15.80;99.90;;;;;;5036366;28;20213;-85
2022/10/24 05:59:46;;;;;;;3.00;2.70;;;15.80;99.90;;;;;;5034127;28;20698;-84
2022/10/24 06:02:17;;;;;;;4.37;3.03;;;15.80;99.90;;;;;;5034808;28;20203;-83
2022/10/24 06:04:44;;;;;;;5.33;3.47;;;15.70;99.90;;;;;;5035264;28;20198;-83
2022/10/24 06:07:11;;;;;;;3.83;3.20;;;15.70;99.90;;;;;;5034583;28;20668;-83
2022/10/24 06:09:40;;;;;;;3.30;3.00;;;15.60;99.90;;;;;;5041831;28;20200;-84
2022/10/24 06:12:08;;;;;;;3.80;3.07;;;15.60;99.90;;;;;;5035979;28;20606;-83
2022/10/24 06:14:37;;;;;;;3.37;3.07;;;15.60;99.90;;;;;;5026617;28;20641;-82
2022/10/24 06:17:07;;;;;;;5.10;3.23;;;15.60;99.90;;;;;;5025432;28;20210;-82
2022/10/24 06:19:36;;;;;;;2.87;2.67;;;15.60;99.90;;;;;;5021962;28;20208;-83
2022/10/24 06:22:03;;;;;;;4.40;3.00;;;15.60;99.90;;;;;;5027726;28;20569;-82
2022/10/24 06:24:29;;;;;;;3.33;2.70;;;15.70;99.90;;;;;;5021084;28;20214;-83
2022/10/24 06:27:12;;;;;;;3.77;2.80;;;15.60;99.90;;;;;;5024956;28;20202;-83
2022/10/24 06:29:43;;;;;;;3.50;2.87;;;15.60;99.90;;;;;;5021155;28;20204;-83
2022/10/24 06:32:10;;;;;;;3.97;3.33;;;15.70;99.90;;;;;;5026767;28;20211;-82
2022/10/24 06:34:37;;;;;;;3.77;3.00;;;15.60;99.90;;;;;;5024219;28;20238;-83
2022/10/24 06:37:04;;;;;;;6.13;3.30;;;15.60;99.90;;;;;;5027760;28;20558;-84
2022/10/24 06:39:31;;;;;;;6.80;3.40;;;15.60;99.90;;;;;;5040726;28;20680;-83
2022/10/24 06:41:57;;;;;;;7.33;6.63;;;15.50;99.90;;;;;;5024819;28;20190;-83
2022/10/24 06:44:26;;;;;;;6.27;3.30;;;15.50;99.90;;;;;;5023538;28;20202;-83
2022/10/24 06:46:54;;;;;;;4.77;3.20;;;15.40;99.90;;;;;;5023263;28;20209;-82
2022/10/24 06:49:22;;;;;;;5.13;4.00;;;15.40;99.90;;;;;;5044877;28;20584;-83
2022/10/24 06:51:49;;;;;;;3.87;3.17;;;15.40;99.90;;;;;;5026502;28;20227;-83
2022/10/24 06:54:16;;;;;;;4.53;3.50;;;15.30;99.90;;;;;;5024429;28;20207;-83
2022/10/24 06:56:43;;;;;;;3.93;3.23;;;15.40;99.90;;;;;;5024864;28;20218;-83
2022/10/24 06:59:11;;;;;;;3.40;2.90;;;15.40;99.90;;;;;;5028033;28;20265;-83
2022/10/24 07:01:38;;;;;;;4.40;3.60;;;15.40;99.90;;;;;;5023662;28;20227;-83
2022/10/24 07:04:06;;;;;;;4.97;3.73;;;15.30;99.90;;;;;;5030775;28;20252;-83
2022/10/24 07:06:33;;;;;;;4.80;3.80;;;15.40;99.90;;;;;;5026595;28;20215;-84
2022/10/24 07:09:02;;;;;;;5.73;4.07;;;15.40;99.90;;;;;;5034525;28;20198;-83
2022/10/24 07:11:29;;;;;;;6.43;5.83;;;15.50;99.90;;;;;;5046204;28;20208;-83
2022/10/24 07:13:56;;;;;;;5.50;5.00;;;15.50;99.90;;;;;;5030652;28;20228;-83
2022/10/24 07:16:24;;;;;;;5.30;3.77;;;15.60;99.90;;;;;;5045844;28;20225;-83
2022/10/24 07:18:52;;;;;;;5.10;3.50;;;15.60;99.90;;;;;;5027005;28;20203;-84
2022/10/24 07:21:23;;;;;;;7.13;3.70;;;15.60;99.90;;;;;;5028152;28;20264;-83
2022/10/24 07:23:51;;;;;;;5.20;3.70;;;15.70;99.90;;;;;;5029468;28;20208;-84
2022/10/24 07:26:20;;;;;;;7.70;7.00;;;15.70;99.90;;;;;;5031327;28;20242;-83
2022/10/24 07:28:52;;;;;;;8.07;7.37;;;15.60;99.90;;;;;;5044641;28;20209;-82
2022/10/24 07:31:19;;;;;;;9.70;8.30;;;15.60;99.90;;;;;;5027895;28;20228;-83
2022/10/24 07:33:46;;;;;;;9.03;8.23;;;15.50;99.90;;;;;;5026960;28;20211;-83
2022/10/24 07:36:17;;;;;;;8.93;8.13;;;15.50;99.90;;;;;;5030899;28;20672;-83
2022/10/24 07:38:46;;;;;;;7.87;7.30;;;15.50;99.90;;;;;;5045483;28;20204;-81
2022/10/24 07:41:13;;;;;;;8.00;7.20;;;15.50;99.90;;;;;;5028690;28;20226;-83
2022/10/24 07:43:41;;;;;;;8.07;7.20;;;15.50;99.90;;;;;;5027599;28;20223;-83
2022/10/24 07:46:08;;;;;;;10.37;8.60;;;15.50;99.90;;;;;;5032035;28;20294;-83
2022/10/24 07:48:36;;;;;;;9.50;8.70;;;15.50;99.90;;;;;;5028981;28;20191;-82
2022/10/24 07:51:06;;;;;;;5.97;3.93;;;15.50;99.90;;;;;;5032441;28;20291;-82
2022/10/24 07:53:33;;;;;;;6.47;3.87;;;15.60;99.90;;;;;;5031482;28;20290;-83
2022/10/24 07:56:04;;;;;;;3.63;3.20;;;15.60;99.90;;;;;;5029290;28;20203;-82
2022/10/24 07:58:31;;;;;;;5.90;4.93;;;15.70;99.90;;;;;;5045265;28;20564;-82
2022/10/24 08:01:03;;;;;;;4.27;3.47;;;15.80;99.90;;;;;;5025792;28;20239;-82
2022/10/24 08:03:30;;;;;;;5.23;4.20;;;15.90;99.90;;;;;;5026244;28;20236;-82
2022/10/24 08:05:57;;;;;;;3.50;3.20;;;15.90;99.90;;;;;;5028224;28;20299;-82
2022/10/24 08:08:24;;;;;;;3.93;3.40;;;16.00;99.90;;;;;;5027712;28;20216;-82
2022/10/24 08:10:51;;;;;;;4.10;3.30;;;15.90;99.90;;;;;;5030433;28;20884;-82
2022/10/24 08:13:19;;;;;;;6.17;4.20;;;15.90;99.90;;;;;;5030100;28;20255;-83
2022/10/24 08:15:46;;;;;;;5.03;3.40;;;15.90;99.90;;;;;;5024568;28;20208;-82
2022/10/24 08:18:13;;;;;;;4.83;3.90;;;15.80;99.90;;;;;;5026709;28;20257;-82
2022/10/24 08:20:41;;;;;;;10.17;3.70;;;15.80;99.90;;;;;;5026216;28;20715;-83
2022/10/24 08:23:08;;;;;;;5.00;3.90;;;15.70;99.90;;;;;;5042012;28;20208;-82
2022/10/24 08:25:37;;;;;;;5.80;3.97;;;15.80;99.90;;;;;;5026866;28;20215;-82
2022/10/24 08:28:04;;;;;;;4.23;3.67;;;15.90;99.90;;;;;;5029300;28;20291;-81
2022/10/24 08:30:32;;;;;;;5.40;4.53;;;16.00;99.90;;;;;;5027234;28;20234;-83
2022/10/24 08:32:59;;;;;;;5.17;4.00;;;16.10;99.90;;;;;;5031077;28;20214;-83
2022/10/24 08:35:28;;;;;;;4.10;3.63;;;16.10;99.90;;;;;;5024286;28;20292;-84
2022/10/24 08:37:55;;;;;;;5.83;3.60;;;16.20;99.90;;;;;;5029813;28;20196;-84
2022/10/24 08:40:22;;;;;;;9.10;3.63;;;16.10;99.90;;;;;;5026400;28;20641;-83
2022/10/24 08:42:49;;;;;;;3.90;3.50;;;16.00;99.90;;;;;;5043887;28;20256;-83
2022/10/24 08:45:23;;;;;;;6.63;3.77;;;16.00;99.90;;;;;;5043285;28;20290;-84
2022/10/24 08:47:57;;;;;;;5.67;3.33;;;16.00;99.90;;;;;;5043984;28;20208;-83
2022/10/24 08:50:29;;;;;;;3.20;2.90;;;16.00;99.90;;;;;;5038857;22;20219;-84
2022/10/24 08:53:00;;;;;;;5.77;3.20;;;16.00;99.90;;;;;;5048792;28;20216;-83
2022/10/24 08:55:32;;;;;;;5.27;3.23;;;16.00;99.90;;;;;;5042627;28;20227;-83
2022/10/24 08:58:00;;;;;;;5.77;3.30;;;16.00;99.90;;;;;;5051290;28;20210;-84
2022/10/24 09:00:30;;;;;;;4.47;3.40;;;16.10;99.90;;;;;;5037913;28;20416;-83
2022/10/24 09:03:05;;;;;;;5.00;3.93;;;16.10;99.90;;;;;;5028171;28;20560;-84
2022/10/24 09:05:36;;;;;;;6.17;4.40;;;16.10;99.90;;;;;;5028093;28;20296;-84
2022/10/24 09:08:15;;;;;;;5.20;4.07;;;16.10;99.90;;;;;;5025628;28;20257;-84
2022/10/24 09:10:49;;;;;;;5.50;4.40;;;16.10;99.90;;;;;;5028174;28;20227;-82
2022/10/24 09:13:17;;;;;;;3.97;3.57;;;16.10;99.90;;;;;;5028566;28;20224;-83
2022/10/24 09:15:46;;;;;;;6.53;4.13;;;16.10;99.90;;;;;;5028177;28;20230;-84
2022/10/24 09:18:20;;;;;;;4.43;4.03;;;16.10;99.90;;;;;;5027475;28;20258;-83
2022/10/24 09:20:48;;;;;;;5.27;4.03;;;16.10;99.90;;;;;;5025938;28;20346;-84
2022/10/24 09:23:17;;;;;;;3.60;3.30;;;16.10;99.90;;;;;;5027698;28;20200;-83
2022/10/24 09:25:49;;;;;;;3.73;3.33;;;16.10;99.90;;;;;;5025139;28;20211;-83
2022/10/24 09:28:17;;;;;;;6.20;4.90;;;16.10;99.90;;;;;;5027923;28;20218;-84
2022/10/24 09:30:44;;;;;;;4.90;4.50;;;16.10;99.90;;;;;;5025927;28;20220;-83
2022/10/24 09:33:22;;;;;;;6.60;5.10;;;16.20;99.90;;;;;;5025506;28;20274;-84
2022/10/24 09:35:50;;;;;;;5.80;3.47;;;16.20;99.90;;;;;;5028015;28;20571;-84
2022/10/24 09:38:34;;;;;;;3.80;3.00;;;16.30;99.90;;;;;;5027053;28;20200;-83
2022/10/24 09:41:05;;;;;;;5.77;5.30;;;16.30;99.90;;;;;;5024113;28;20609;-82
2022/10/24 09:43:40;;;;;;;5.10;4.70;;;16.30;99.90;;;;;;5027635;28;20656;-83
2022/10/24 09:46:10;;;;;;;6.40;5.70;;;16.40;99.90;;;;;;5025643;28;21016;-83
2022/10/24 09:48:49;;;;;;;3.63;3.33;;;16.30;99.90;;;;;;5026357;28;20230;-83
2022/10/24 09:51:23;;;;;;;3.10;2.87;;;16.30;99.90;;;;;;5025244;28;20223;-83
2022/10/24 09:54:25;;;;;;;4.97;3.00;;;16.30;99.90;;;;;;5027323;28;20679;-83
2022/10/24 09:56:56;;;;;;;5.43;2.90;;;16.30;99.90;;;;;;5026452;28;20449;-84
2022/10/24 09:59:36;;;;;;;4.63;3.10;;;16.30;99.90;;;;;;5024529;28;20231;-85
2022/10/24 10:02:26;;;;;;;5.00;3.30;;;16.40;99.90;;;;;;5025168;28;20183;-84
2022/10/24 10:05:22;;;;;;;4.33;3.83;;;16.30;99.90;;;;;;5026172;28;20275;-84
2022/10/24 10:07:51;;;;;;;4.00;3.60;;;16.30;99.90;;;;;;5026445;28;20208;-83
2022/10/24 10:10:30;;;;;;;5.30;4.43;;;16.30;99.90;;;;;;5026427;28;20230;-84
2022/10/24 10:13:03;;;;;;;4.40;3.10;;;16.30;99.90;;;;;;5024485;28;20216;-84
2022/10/24 10:15:34;;;;;;;3.97;3.03;;;16.30;99.90;;;;;;5028550;28;20208;-85
2022/10/24 10:18:04;;;;;;;3.97;3.23;;;16.30;99.90;;;;;;5029911;28;20282;-84
2022/10/24 10:20:38;;;;;;;6.20;2.90;;;16.30;99.90;;;;;;5027509;28;20599;-85
2022/10/24 10:23:25;;;;;;;2.80;2.60;;;16.30;99.90;;;;;;5020615;28;20207;-84
2022/10/24 10:26:16;;;;;;;6.13;2.97;;;16.30;99.90;;;;;;5025274;28;20613;-83
2022/10/24 10:28:50;;;;;;;3.10;2.90;;;16.40;99.90;;;;;;5043171;28;20540;-84
2022/10/24 10:31:20;;;;;;;3.30;2.60;;;16.50;99.90;;;;;;5024956;28;20317;-84
2022/10/24 10:34:01;;;;;;;4.67;4.37;;;16.50;99.90;;;;;;5042301;28;20224;-83
2022/10/24 10:36:32;;;;;;;4.53;4.00;;;16.60;99.90;;;;;;5025996;28;20210;-84
2022/10/24 10:39:23;;;;;;;4.80;4.40;;;16.60;99.90;;;;;;5024080;28;20201;-83
2022/10/24 10:41:58;;;;;;;8.77;8.07;;;16.50;99.90;;;;;;5024902;28;20687;-83
2022/10/24 10:44:43;;;;;;;3.37;3.07;;;16.50;99.90;;;;;;5023571;28;20277;-83
2022/10/24 10:47:16;;;;;;;3.47;3.17;;;16.60;99.90;;;;;;5025996;28;20672;-83
2022/10/24 10:49:43;;;;;;;2.90;2.70;;;16.60;99.90;;;;;;5023007;28;20869;-83
2022/10/24 10:52:17;;;;;;;3.13;2.83;;;16.70;99.90;;;;;;5023622;28;20216;-83
2022/10/24 10:55:15;;;;;;;8.30;7.80;;;16.90;99.90;;;;;;5024230;28;20576;-83
2022/10/24 10:57:52;;;;;;;7.10;6.60;;;17.00;99.90;;;;;;5025637;28;20192;-83
2022/10/24 11:00:22;;;;;;;3.33;3.10;;;17.20;99.90;;;;;;5023733;28;20223;-83
2022/10/24 11:03:01;;;;;;;3.20;2.70;;;17.30;99.90;;;;;;5025019;28;20206;-84
2022/10/24 11:05:47;;;;;;;6.50;5.63;;;17.30;99.90;;;;;;5025947;28;20203;-83
2022/10/24 11:08:38;;;;;;;3.50;2.83;;;17.30;99.90;;;;;;5016678;28;20273;-84
2022/10/24 11:11:12;;;;;;;3.33;2.60;;;17.30;99.90;;;;;;5022118;28;20224;-83
2022/10/24 11:13:43;;;;;;;5.57;5.17;;;17.50;99.90;;;;;;5042811;28;20239;-84
2022/10/24 11:16:14;;;;;;;3.13;2.93;;;17.50;99.90;;;;;;5024056;28;20239;-83
2022/10/24 11:18:50;;;;;;;4.37;3.97;;;17.50;99.90;;;;;;5026407;28;20589;-83
2022/10/24 11:21:21;;;;;;;3.23;3.00;;;17.40;99.90;;;;;;5043272;28;20271;-83
2022/10/24 11:23:54;;;;;;;3.30;2.70;;;17.20;99.90;;;;;;5025174;28;20193;-83
2022/10/24 11:26:30;;;;;;;3.03;2.60;;;17.10;99.90;;;;;;5025671;28;20239;-83
2022/10/24 11:29:04;;;;;;;2.70;2.50;;;17.10;99.90;;;;;;5023794;28;20262;-85
2022/10/24 11:31:34;;;;;;;2.70;2.50;;;17.10;99.90;;;;;;5022943;28;20224;-83
2022/10/24 11:34:07;;;;;;;2.80;2.60;;;17.10;99.90;;;;;;5026044;28;20589;-82
2022/10/24 11:36:42;;;;;;;3.10;2.90;;;17.20;99.90;;;;;;5025950;28;20204;-83
2022/10/24 11:39:17;;;;;;;2.97;2.70;;;17.20;99.90;;;;;;5026049;28;20202;-82
2022/10/24 11:41:52;;;;;;;2.97;2.60;;;17.20;99.90;;;;;;5023750;28;20269;-82
2022/10/24 11:44:31;;;;;;;4.40;2.70;;;17.30;99.90;;;;;;5025849;28;20286;-82
2022/10/24 11:47:07;;;;;;;4.60;3.03;;;17.30;99.90;;;;;;5032673;28;20196;-82
2022/10/24 11:49:40;;;;;;;3.23;2.90;;;17.30;99.90;;;;;;5030053;28;20680;-81
2022/10/24 11:52:18;;;;;;;2.90;2.70;;;17.40;99.90;;;;;;5026552;28;20205;-82
2022/10/24 11:54:53;;;;;;;3.70;2.87;;;17.50;99.90;;;;;;5025911;28;20218;-82
2022/10/24 11:57:24;;;;;;;3.23;2.87;;;17.50;99.90;;;;;;5027837;28;20579;-83
2022/10/24 11:59:53;;;;;;;3.40;3.10;;;17.60;99.90;;;;;;5029970;28;20594;-83
2022/10/24 12:02:48;;;;;;;8.90;8.20;;;17.60;99.90;;;;;;5028159;28;20667;-83
2022/10/24 12:05:50;;;;;;;3.00;2.73;;;17.60;99.90;;;;;;5026982;28;20204;-83
2022/10/24 12:08:37;;;;;;;3.10;2.80;;;17.70;99.90;;;;;;5025070;28;20204;-83
2022/10/24 12:11:37;;;;;;;6.33;5.93;;;17.70;99.90;;;;;;5018215;28;20319;-84
2022/10/24 12:14:29;;;;;;;8.27;7.73;;;17.70;99.90;;;;;;5009615;28;20781;-84
2022/10/24 12:17:21;;;;;;;3.90;2.90;;;17.60;99.90;;;;;;5036375;28;20279;-83
2022/10/24 12:19:54;;;;;;;3.93;3.20;;;17.70;99.90;;;;;;5021432;28;20300;-81
2022/10/24 12:22:26;;;;;;;3.27;3.07;;;17.70;99.90;;;;;;5034738;28;20204;-82
2022/10/24 12:25:05;;;;;;;3.30;3.10;;;17.80;99.90;;;;;;5035096;28;20328;-81
2022/10/24 12:27:37;;;;;;;7.10;6.50;;;17.90;99.90;;;;;;5034687;28;20197;-81
2022/10/24 12:30:15;;;;;;;7.17;6.67;;;17.90;99.90;;;;;;5035394;28;20225;-82
2022/10/24 12:32:45;;;;;;;3.40;3.10;;;17.90;99.90;;;;;;5031663;28;20249;-82
2022/10/24 12:35:55;;;;;;;3.60;3.07;;;18.00;99.90;;;;;;5034779;28;20205;-82
2022/10/24 12:39:08;;;;;;;3.43;3.13;;;18.00;99.90;;;;;;5033936;28;20210;-82
2022/10/24 12:41:42;;;;;;;3.10;2.90;;;18.00;99.90;;;;;;5034049;28;20250;-81
2022/10/24 12:44:40;;;;;;;2.90;2.70;;;18.00;99.90;;;;;;5034841;28;20217;-82
2022/10/24 12:47:32;;;;;;;4.23;2.80;;;18.00;99.90;;;;;;5033750;28;20244;-82
2022/10/24 12:50:14;;;;;;;8.60;8.00;;;18.10;99.90;;;;;;5033559;28;20229;-82
2022/10/24 12:53:03;;;;;;;8.97;8.37;;;18.10;99.90;;;;;;5026645;28;20304;-79
2022/10/24 12:56:03;;;;;;;8.67;8.00;;;18.10;99.90;;;;;;5031292;28;20286;-82
2022/10/24 12:58:32;;;;;;;3.10;2.87;;;18.10;99.90;;;;;;5030191;28;20198;-82
2022/10/24 13:01:03;;;;;;;5.00;4.70;;;18.20;99.90;;;;;;5033330;28;20217;-81
2022/10/24 13:03:52;;;;;;;2.93;2.73;;;18.20;99.90;;;;;;5027274;28;20191;-81
2022/10/24 13:06:27;;;;;;;3.43;2.80;;;18.30;99.90;;;;;;5034802;28;20586;-82
2022/10/24 13:09:12;;;;;;;2.77;2.57;;;18.30;99.90;;;;;;5034273;28;20209;-82